createdAt,value
2022-11-25T00:00:14.901Z,9.37
2022-11-25T00:02:44.535Z,10.37
2022-11-25T00:05:13.565Z,13.77
2022-11-25T00:07:41.362Z,29.57
2022-11-25T00:10:09.301Z,27.70
2022-11-25T00:12:36.825Z,30.33
2022-11-25T00:15:05.131Z,20.87
2022-11-25T00:17:32.694Z,12.57
2022-11-25T00:20:01.621Z,16.40
2022-11-25T00:22:30.576Z,16.27
2022-11-25T00:24:58.179Z,15.90
2022-11-25T00:27:25.848Z,14.17
2022-11-25T00:29:53.369Z,8.27
2022-11-25T00:32:20.972Z,15.67
2022-11-25T00:34:48.616Z,11.03
2022-11-25T00:37:16.219Z,10.57
2022-11-25T00:39:45.095Z,9.70
2022-11-25T00:42:30.009Z,12.87
2022-11-25T00:44:57.657Z,14.57
2022-11-25T00:47:25.263Z,10.00
2022-11-25T00:49:54.967Z,8.00
2022-11-25T00:52:23.842Z,17.10
2022-11-25T00:54:53.515Z,9.17
2022-11-25T00:57:22.939Z,15.43
2022-11-25T00:59:50.589Z,11.80
2022-11-25T01:02:19.903Z,9.83
2022-11-25T01:04:47.657Z,11.87
2022-11-25T01:07:15.653Z,12.57
2022-11-25T01:09:43.248Z,14.47
2022-11-25T01:12:12.521Z,10.50
2022-11-25T01:14:40.431Z,8.63
2022-11-25T01:17:08.064Z,10.60
2022-11-25T01:19:39.899Z,8.07
2022-11-25T01:22:07.945Z,9.33
2022-11-25T01:24:36.349Z,8.87
2022-11-25T01:27:04.049Z,5.17
2022-11-25T01:29:33.233Z,10.90
2022-11-25T01:32:00.978Z,9.40
2022-11-25T01:34:31.944Z,6.47
2022-11-25T01:36:59.864Z,11.10
2022-11-25T01:39:32.541Z,12.23
2022-11-25T01:42:00.683Z,8.07
2022-11-25T01:44:29.570Z,8.07
2022-11-25T01:47:02.921Z,8.03
2022-11-25T01:49:34.955Z,13.57
2022-11-25T01:52:06.108Z,13.60
2022-11-25T01:54:37.217Z,16.47
2022-11-25T01:57:08.819Z,11.70
2022-11-25T01:59:38.781Z,13.60
2022-11-25T02:02:09.625Z,15.73
2022-11-25T02:04:39.381Z,13.30
2022-11-25T02:07:11.042Z,14.03
2022-11-25T02:09:40.616Z,17.17
2022-11-25T02:12:08.640Z,11.97
2022-11-25T02:14:36.634Z,10.13
2022-11-25T02:17:04.429Z,13.30
2022-11-25T02:19:43.407Z,23.47
2022-11-25T02:22:13.657Z,19.37
2022-11-25T02:24:44.842Z,9.77
2022-11-25T02:27:14.269Z,14.60
2022-11-25T02:29:41.994Z,12.27
2022-11-25T02:32:09.573Z,10.53
2022-11-25T02:34:37.294Z,10.90
2022-11-25T02:37:04.965Z,11.80
2022-11-25T02:39:32.556Z,12.20
2022-11-25T02:42:01.294Z,10.57
2022-11-25T02:44:30.183Z,11.87
2022-11-25T02:46:57.808Z,10.77
2022-11-25T02:49:25.385Z,10.00
2022-11-25T02:51:53.063Z,8.67
2022-11-25T02:54:20.798Z,7.97
2022-11-25T02:56:48.382Z,7.80
2022-11-25T02:59:15.989Z,9.43
2022-11-25T03:01:44.987Z,11.77
2022-11-25T03:04:12.846Z,12.67
2022-11-25T03:06:40.518Z,12.10
2022-11-25T03:09:08.434Z,14.53
2022-11-25T03:11:53.839Z,9.57
2022-11-25T03:14:21.468Z,12.07
2022-11-25T03:16:50.531Z,18.40
2022-11-25T03:19:18.245Z,13.13
2022-11-25T03:21:45.789Z,16.60
2022-11-25T03:24:13.393Z,12.67
2022-11-25T03:26:40.968Z,14.07
2022-11-25T03:29:08.637Z,18.63
2022-11-25T03:31:36.287Z,8.80
2022-11-25T03:34:05.241Z,11.00
2022-11-25T03:36:32.849Z,18.27
2022-11-25T03:39:00.498Z,20.53
2022-11-25T03:41:28.100Z,15.40
2022-11-25T03:43:55.756Z,16.73
2022-11-25T03:46:23.450Z,10.93
2022-11-25T03:48:51.194Z,14.10
2022-11-25T03:51:20.136Z,16.97
2022-11-25T03:53:47.776Z,11.53
2022-11-25T03:56:15.485Z,11.30
2022-11-25T03:58:43.060Z,15.17
2022-11-25T04:01:10.847Z,10.50
2022-11-25T04:03:38.486Z,16.63
2022-11-25T04:06:06.154Z,10.83
2022-11-25T04:08:35.124Z,14.93
2022-11-25T04:11:02.725Z,12.00
2022-11-25T04:13:29.632Z,12.03
2022-11-25T04:15:57.661Z,14.43
2022-11-25T04:18:25.255Z,13.43
2022-11-25T04:20:52.980Z,15.90
2022-11-25T04:23:20.576Z,19.10
2022-11-25T04:25:51.928Z,20.90
2022-11-25T04:28:19.511Z,20.90
2022-11-25T04:30:47.151Z,9.97
2022-11-25T04:33:14.759Z,15.17
2022-11-25T04:35:42.352Z,16.73
2022-11-25T04:38:09.931Z,15.13
2022-11-25T04:40:37.547Z,19.27
2022-11-25T04:43:10.557Z,13.23
2022-11-25T04:46:06.503Z,10.27
2022-11-25T04:48:25.995Z,16.93
2022-11-25T04:50:53.618Z,11.77
2022-11-25T04:53:21.203Z,14.20
2022-11-25T04:55:49.064Z,12.83
2022-11-25T04:58:38.643Z,11.33
2022-11-25T05:01:05.381Z,12.13
2022-11-25T05:03:33.002Z,13.87
2022-11-25T05:06:00.647Z,13.90
2022-11-25T05:08:28.269Z,16.07
2022-11-25T05:10:55.995Z,10.37
2022-11-25T05:13:24.972Z,15.07
2022-11-25T05:15:52.547Z,9.30
2022-11-25T05:18:20.161Z,10.73
2022-11-25T05:20:47.755Z,16.80
2022-11-25T05:23:15.365Z,17.07
2022-11-25T05:25:42.927Z,17.23
2022-11-25T05:28:10.538Z,17.27
2022-11-25T05:30:39.564Z,18.20
2022-11-25T05:33:07.141Z,13.50
2022-11-25T05:35:34.722Z,11.93
2022-11-25T05:38:04.039Z,12.30
2022-11-25T05:40:32.628Z,13.53
2022-11-25T05:43:01.871Z,10.03
2022-11-25T05:45:29.537Z,11.77
2022-11-25T05:47:58.471Z,16.40
2022-11-25T05:50:26.097Z,16.43
2022-11-25T05:52:53.668Z,12.93
2022-11-25T05:55:21.259Z,15.53
2022-11-25T05:57:48.922Z,12.63
2022-11-25T06:00:16.901Z,14.93
2022-11-25T06:02:44.653Z,17.27
2022-11-25T06:05:13.638Z,19.63
2022-11-25T06:07:41.279Z,23.93
2022-11-25T06:10:09.858Z,19.67
2022-11-25T06:12:37.499Z,22.73
2022-11-25T06:15:05.938Z,16.00
2022-11-25T06:17:33.543Z,14.20
2022-11-25T06:20:01.168Z,17.07
2022-11-25T06:22:30.081Z,17.57
2022-11-25T06:25:02.994Z,16.90
2022-11-25T06:27:50.133Z,14.03
2022-11-25T06:30:19.741Z,16.57
2022-11-25T06:32:47.381Z,14.80
2022-11-25T06:35:15.001Z,11.87
2022-11-25T06:37:43.973Z,16.60
2022-11-25T06:40:12.470Z,15.00
2022-11-25T06:42:40.385Z,15.47
2022-11-25T06:45:09.172Z,12.03
2022-11-25T06:47:36.766Z,12.33
2022-11-25T06:50:04.721Z,17.57
2022-11-25T06:52:32.424Z,10.73
2022-11-25T06:55:01.338Z,15.63
2022-11-25T06:57:28.940Z,12.90
2022-11-25T06:59:56.496Z,14.77
2022-11-25T07:02:24.110Z,11.70
2022-11-25T07:04:51.711Z,11.97
2022-11-25T07:07:19.533Z,16.97
2022-11-25T07:09:47.550Z,14.60
2022-11-25T07:12:16.597Z,16.10
2022-11-25T07:14:44.150Z,15.57
2022-11-25T07:17:12.439Z,16.43
2022-11-25T07:19:40.377Z,11.77
2022-11-25T07:22:07.973Z,12.50
2022-11-25T07:24:35.734Z,12.77
2022-11-25T07:27:05.865Z,15.37
2022-11-25T07:30:10.134Z,12.57
2022-11-25T07:32:23.914Z,11.20
2022-11-25T07:34:51.995Z,18.33
2022-11-25T07:37:19.644Z,10.07
2022-11-25T07:39:47.253Z,11.47
2022-11-25T07:42:14.973Z,12.60
2022-11-25T07:44:43.935Z,12.13
2022-11-25T07:47:11.524Z,10.97
2022-11-25T07:49:39.355Z,10.50
2022-11-25T07:52:07.015Z,12.73
2022-11-25T07:54:34.604Z,15.37
2022-11-25T07:57:02.209Z,14.03
2022-11-25T07:59:29.829Z,18.60
2022-11-25T08:01:58.784Z,22.33
2022-11-25T08:04:26.393Z,19.93
2022-11-25T08:06:54.221Z,14.50
2022-11-25T08:09:23.694Z,13.53
2022-11-25T08:11:51.889Z,12.03
2022-11-25T08:14:19.671Z,14.93
2022-11-25T08:16:47.571Z,15.47
2022-11-25T08:19:17.962Z,14.77
2022-11-25T08:21:47.711Z,14.10
2022-11-25T08:24:16.657Z,16.17
2022-11-25T08:26:44.219Z,14.40
2022-11-25T08:29:14.421Z,14.33
2022-11-25T08:31:42.926Z,15.33
2022-11-25T08:34:19.217Z,14.67
2022-11-25T08:36:48.728Z,19.63
2022-11-25T08:39:36.367Z,17.03
2022-11-25T08:42:05.316Z,16.40
2022-11-25T08:44:32.946Z,16.10
2022-11-25T08:47:00.769Z,17.90
2022-11-25T08:49:34.970Z,12.07
2022-11-25T08:52:07.969Z,13.50
2022-11-25T08:54:35.571Z,9.10
2022-11-25T08:57:03.207Z,12.07
2022-11-25T08:59:30.765Z,9.97
2022-11-25T09:01:58.381Z,11.57
2022-11-25T09:04:25.969Z,10.97
2022-11-25T09:06:54.936Z,10.47
2022-11-25T09:09:22.510Z,14.13
2022-11-25T09:11:50.186Z,12.67
2022-11-25T09:14:17.850Z,11.93
2022-11-25T09:16:45.487Z,9.37
2022-11-25T09:19:13.100Z,11.67
2022-11-25T09:21:40.662Z,14.40
2022-11-25T09:24:10.210Z,16.30
2022-11-25T09:26:40.957Z,14.30
2022-11-25T09:29:08.665Z,11.90
2022-11-25T09:31:36.440Z,13.10
2022-11-25T09:34:04.106Z,18.70
2022-11-25T09:36:31.841Z,13.93
2022-11-25T09:38:59.423Z,12.17
2022-11-25T09:42:00.963Z,11.90
2022-11-25T09:44:56.831Z,14.00
2022-11-25T09:47:29.276Z,16.03
2022-11-25T09:50:06.555Z,15.80
2022-11-25T09:52:38.511Z,16.43
2022-11-25T09:55:08.497Z,12.53
2022-11-25T09:57:52.879Z,14.00
2022-11-25T10:00:24.518Z,16.07
2022-11-25T10:03:01.034Z,12.00
2022-11-25T10:05:30.672Z,13.17
2022-11-25T10:08:00.880Z,13.33
2022-11-25T10:10:31.782Z,11.40
2022-11-25T10:13:00.923Z,10.47
2022-11-25T10:15:31.554Z,15.67
2022-11-25T10:18:01.587Z,13.50
2022-11-25T10:20:32.728Z,15.43
2022-11-25T10:23:02.275Z,25.63
2022-11-25T10:25:32.936Z,25.10
2022-11-25T10:28:03.245Z,15.57
2022-11-25T10:30:35.850Z,16.53
2022-11-25T10:33:06.634Z,13.03
2022-11-25T10:35:39.462Z,13.60
2022-11-25T10:38:17.405Z,9.83
2022-11-25T10:40:48.505Z,9.87
2022-11-25T10:43:17.502Z,12.43
2022-11-25T10:45:49.151Z,16.30
2022-11-25T10:48:26.769Z,14.43
2022-11-25T10:51:04.957Z,9.90
2022-11-25T10:53:32.701Z,10.40
2022-11-25T10:56:03.521Z,12.47
2022-11-25T10:58:35.572Z,11.20
2022-11-25T11:01:05.660Z,27.80
2022-11-25T11:03:33.323Z,16.73
2022-11-25T11:06:00.896Z,17.17
2022-11-25T11:08:30.414Z,16.60
2022-11-25T11:11:21.229Z,12.90
2022-11-25T11:13:51.541Z,12.77
2022-11-25T11:16:28.067Z,17.37
2022-11-25T11:18:56.230Z,15.03
2022-11-25T11:21:26.350Z,14.70
2022-11-25T11:23:57.007Z,16.57
2022-11-25T11:26:26.592Z,12.20
2022-11-25T11:29:09.750Z,13.07
2022-11-25T11:31:44.784Z,8.70
2022-11-25T11:34:30.478Z,13.50
2022-11-25T11:37:13.659Z,11.63
2022-11-25T11:40:13.917Z,8.80
2022-11-25T11:42:51.318Z,13.63
2022-11-25T11:45:33.695Z,12.53
2022-11-25T11:48:10.870Z,9.30
2022-11-25T11:50:41.234Z,9.50
2022-11-25T11:53:12.559Z,11.30
2022-11-25T11:56:26.824Z,9.50
2022-11-25T11:58:51.193Z,12.40
2022-11-25T12:01:32.225Z,8.80
2022-11-25T12:04:02.172Z,8.47
2022-11-25T12:06:33.088Z,11.70
2022-11-25T12:09:02.885Z,7.93
2022-11-25T12:11:33.665Z,7.77
2022-11-25T12:14:05.319Z,9.13
2022-11-25T12:16:37.476Z,9.50
2022-11-25T12:19:14.051Z,9.47
2022-11-25T12:21:47.489Z,8.37
2022-11-25T12:24:19.922Z,11.07
2022-11-25T12:26:51.967Z,9.37
2022-11-25T12:29:27.136Z,9.60
2022-11-25T12:31:59.943Z,11.47
2022-11-25T12:34:33.606Z,10.17
2022-11-25T12:37:09.507Z,8.53
2022-11-25T12:39:43.827Z,9.60
2022-11-25T12:42:15.443Z,8.73
2022-11-25T12:45:03.527Z,9.17
2022-11-25T12:47:32.912Z,6.33
2022-11-25T12:50:00.685Z,5.47
2022-11-25T12:52:39.266Z,9.33
2022-11-25T12:55:13.345Z,8.60
2022-11-25T12:58:10.129Z,10.60
2022-11-25T13:00:54.744Z,8.20
2022-11-25T13:03:36.229Z,7.83
2022-11-25T13:06:47.868Z,7.97
2022-11-25T13:09:30.333Z,8.33
2022-11-25T13:12:22.983Z,5.77
2022-11-25T13:15:13.243Z,8.60
2022-11-25T13:17:43.037Z,10.60
2022-11-25T13:20:38.041Z,8.17
2022-11-25T13:23:10.287Z,7.03
2022-11-25T13:25:39.600Z,5.07
2022-11-25T13:28:31.080Z,10.40
2022-11-25T13:31:20.387Z,6.73
2022-11-25T13:34:25.459Z,7.07
2022-11-25T13:36:55.589Z,9.00
2022-11-25T13:39:31.423Z,7.50
2022-11-25T13:42:01.809Z,8.63
2022-11-25T13:44:32.610Z,6.00
2022-11-25T13:47:21.799Z,5.03
2022-11-25T13:49:54.038Z,5.73
2022-11-25T13:52:34.619Z,8.43
2022-11-25T13:55:05.878Z,6.63
2022-11-25T13:57:35.367Z,7.77
2022-11-25T14:00:06.826Z,8.13
2022-11-25T14:02:38.249Z,9.10
2022-11-25T14:05:20.807Z,7.00
2022-11-25T14:07:57.192Z,7.63
2022-11-25T14:10:44.944Z,7.83
2022-11-25T14:13:25.734Z,8.83
2022-11-25T14:16:07.089Z,8.00
2022-11-25T14:19:21.823Z,10.63
2022-11-25T14:21:45.492Z,7.77
2022-11-25T14:24:24.726Z,10.57
2022-11-25T14:26:52.890Z,10.60
2022-11-25T14:29:23.235Z,10.43
2022-11-25T14:31:53.265Z,6.77
2022-11-25T14:34:23.951Z,6.90
2022-11-25T14:36:54.759Z,7.40
2022-11-25T14:39:27.338Z,7.27
2022-11-25T14:42:00.415Z,7.07
2022-11-25T14:44:31.310Z,6.10
2022-11-25T14:46:59.862Z,7.63
2022-11-25T14:50:05.277Z,7.93
2022-11-25T14:52:37.345Z,10.33
2022-11-25T14:55:07.462Z,8.90
2022-11-25T14:57:37.195Z,7.33
2022-11-25T15:00:07.881Z,8.07
2022-11-25T15:02:40.322Z,7.33
2022-11-25T15:05:17.366Z,7.50
2022-11-25T15:07:54.973Z,8.27
2022-11-25T15:10:51.734Z,7.87
2022-11-25T15:13:28.357Z,10.20
2022-11-25T15:15:56.701Z,10.60
2022-11-25T15:18:25.185Z,10.87
2022-11-25T15:20:57.005Z,10.70
2022-11-25T15:23:28.409Z,9.43
2022-11-25T15:25:57.779Z,11.87
2022-11-25T15:28:25.401Z,12.63
2022-11-25T15:30:58.234Z,13.10
2022-11-25T15:33:26.831Z,11.23
2022-11-25T15:35:54.654Z,7.50
2022-11-25T15:38:36.554Z,6.33
2022-11-25T15:41:06.253Z,7.87
2022-11-25T15:43:35.725Z,7.60
2022-11-25T15:46:04.952Z,7.00
2022-11-25T15:48:35.322Z,12.80
2022-11-25T15:51:04.859Z,10.40
2022-11-25T15:53:36.885Z,6.53
2022-11-25T15:56:07.801Z,11.70
2022-11-25T15:58:35.787Z,8.20
2022-11-25T16:01:04.851Z,11.27
2022-11-25T16:03:32.858Z,11.10
2022-11-25T16:06:01.381Z,12.00
2022-11-25T16:08:32.568Z,9.37
2022-11-25T16:11:01.528Z,9.30
2022-11-25T16:13:33.355Z,11.60
2022-11-25T16:16:16.996Z,9.30
2022-11-25T16:18:53.491Z,13.20
2022-11-25T16:21:23.290Z,12.70
2022-11-25T16:23:53.353Z,14.47
2022-11-25T16:26:25.377Z,9.17
2022-11-25T16:28:56.653Z,12.20
2022-11-25T16:31:25.420Z,9.30
2022-11-25T16:33:54.323Z,10.43
2022-11-25T16:36:21.872Z,14.23
2022-11-25T16:38:52.928Z,8.30
2022-11-25T16:41:22.243Z,9.47
2022-11-25T16:43:49.842Z,17.57
2022-11-25T16:46:20.209Z,10.00
2022-11-25T16:48:48.489Z,6.60
2022-11-25T16:51:17.101Z,10.50
2022-11-25T16:53:44.941Z,7.73
2022-11-25T16:56:17.562Z,9.47
2022-11-25T16:58:45.503Z,13.50
2022-11-25T17:01:15.546Z,6.93
2022-11-25T17:03:44.945Z,6.27
2022-11-25T17:06:21.470Z,7.87
2022-11-25T17:08:49.785Z,8.43
2022-11-25T17:11:20.130Z,13.43
2022-11-25T17:13:50.392Z,11.83
2022-11-25T17:16:19.951Z,6.30
2022-11-25T17:18:50.004Z,13.27
2022-11-25T17:21:18.604Z,8.77
2022-11-25T17:23:49.177Z,12.17
2022-11-25T17:26:20.754Z,8.00
2022-11-25T17:28:51.594Z,10.83
2022-11-25T17:31:19.278Z,11.83
2022-11-25T17:33:49.115Z,8.93
2022-11-25T17:36:16.714Z,6.90
2022-11-25T17:38:44.375Z,9.10
2022-11-25T17:41:13.293Z,7.03
2022-11-25T17:43:41.136Z,11.20
2022-11-25T17:46:12.137Z,12.27
2022-11-25T17:48:42.267Z,8.07
2022-11-25T17:51:12.141Z,14.13
2022-11-25T17:53:40.635Z,8.60
2022-11-25T17:56:18.804Z,9.50
2022-11-25T17:58:46.597Z,10.53
2022-11-25T18:01:15.410Z,7.17
2022-11-25T18:03:43.056Z,9.10
2022-11-25T18:06:12.110Z,8.87
2022-11-25T18:08:39.697Z,9.30
2022-11-25T18:11:08.108Z,13.27
2022-11-25T18:13:38.025Z,8.30
2022-11-25T18:16:06.440Z,7.20
2022-11-25T18:18:34.085Z,10.67
2022-11-25T18:21:01.882Z,16.17
2022-11-25T18:23:30.836Z,9.70
2022-11-25T18:26:02.119Z,15.73
2022-11-25T18:28:31.842Z,8.67
2022-11-25T18:31:03.322Z,11.03
2022-11-25T18:33:31.450Z,8.67
2022-11-25T18:35:59.627Z,10.50
2022-11-25T18:38:27.190Z,10.20
2022-11-25T18:40:56.215Z,12.10
2022-11-25T18:43:25.658Z,7.07
2022-11-25T18:45:54.291Z,16.13
2022-11-25T18:48:23.674Z,8.77
2022-11-25T18:50:52.639Z,11.87
2022-11-25T18:53:20.178Z,12.87
2022-11-25T18:55:48.970Z,9.87
2022-11-25T18:58:19.486Z,7.83
2022-11-25T19:00:49.363Z,9.23
2022-11-25T19:03:19.873Z,9.53
2022-11-25T19:05:47.937Z,13.20
2022-11-25T19:08:15.688Z,11.67
2022-11-25T19:10:45.118Z,11.97
2022-11-25T19:13:15.971Z,8.00
2022-11-25T19:15:45.896Z,8.57
2022-11-25T19:18:16.317Z,11.73
2022-11-25T19:20:43.875Z,13.47
2022-11-25T19:23:18.432Z,10.70
2022-11-25T19:25:46.274Z,10.20
2022-11-25T19:28:14.692Z,11.73
2022-11-25T19:30:42.345Z,13.60
2022-11-25T19:33:16.770Z,13.03
2022-11-25T19:35:44.423Z,14.33
2022-11-25T19:38:14.971Z,16.03
2022-11-25T19:40:42.580Z,13.77
2022-11-25T19:43:10.180Z,10.33
2022-11-25T19:45:38.253Z,10.37
2022-11-25T19:48:08.393Z,9.73
2022-11-25T19:50:39.251Z,12.47
2022-11-25T19:53:07.444Z,13.40
2022-11-25T19:55:34.977Z,10.90
2022-11-25T19:58:02.542Z,11.90
2022-11-25T20:00:30.128Z,8.80
2022-11-25T20:02:57.719Z,10.13
2022-11-25T20:05:30.183Z,8.60
2022-11-25T20:07:59.244Z,9.87
2022-11-25T20:10:28.349Z,11.57
2022-11-25T20:12:57.196Z,6.90
2022-11-25T20:15:25.010Z,12.60
2022-11-25T20:17:54.694Z,14.87
2022-11-25T20:20:26.479Z,14.03
2022-11-25T20:22:56.915Z,9.93
2022-11-25T20:25:26.411Z,9.47
2022-11-25T20:27:54.152Z,14.37
2022-11-25T20:30:23.327Z,12.00
2022-11-25T20:32:51.504Z,7.67
2022-11-25T20:35:19.663Z,11.53
2022-11-25T20:37:57.467Z,14.70
2022-11-25T20:40:32.248Z,11.73
2022-11-25T20:43:00.191Z,12.10
2022-11-25T20:45:27.824Z,12.73
2022-11-25T20:47:55.477Z,9.73
2022-11-25T20:50:23.626Z,16.57
2022-11-25T20:52:51.441Z,12.10
2022-11-25T20:55:21.224Z,15.73
2022-11-25T20:57:51.887Z,18.23
2022-11-25T21:00:21.660Z,15.37
2022-11-25T21:02:49.853Z,19.23
2022-11-25T21:05:18.265Z,16.83
2022-11-25T21:07:46.798Z,18.80
2022-11-25T21:10:23.911Z,31.43
2022-11-25T21:12:53.171Z,43.97
2022-11-25T21:15:22.389Z,35.13
2022-11-25T21:17:50.168Z,35.33
2022-11-25T21:20:19.232Z,24.73
2022-11-25T21:22:48.484Z,33.80
2022-11-25T21:25:17.792Z,20.40
2022-11-25T21:27:46.075Z,22.73
2022-11-25T21:30:20.148Z,12.13
2022-11-25T21:32:47.859Z,13.67
2022-11-25T21:35:16.506Z,8.20
2022-11-25T21:37:44.897Z,10.33
2022-11-25T21:40:25.348Z,12.80
2022-11-25T21:42:53.150Z,12.40
2022-11-25T21:45:22.293Z,11.90
2022-11-25T21:47:50.124Z,13.17
2022-11-25T21:50:19.646Z,12.47
2022-11-25T21:52:47.333Z,15.97
2022-11-25T21:55:16.220Z,11.97
2022-11-25T21:57:44.128Z,9.87
2022-11-25T22:00:21.549Z,12.20
2022-11-25T22:02:50.666Z,8.37
2022-11-25T22:05:20.415Z,9.50
2022-11-25T22:07:48.465Z,9.37
2022-11-25T22:10:17.453Z,18.43
2022-11-25T22:12:47.755Z,14.27
2022-11-25T22:15:17.897Z,9.43
2022-11-25T22:17:45.801Z,11.07
2022-11-25T22:20:26.693Z,6.93
2022-11-25T22:22:55.011Z,12.70
2022-11-25T22:25:23.243Z,16.37
2022-11-25T22:27:51.103Z,12.70
2022-11-25T22:30:20.953Z,11.00
2022-11-25T22:32:51.211Z,11.00
2022-11-25T22:35:21.888Z,13.57
2022-11-25T22:37:54.941Z,7.03
2022-11-25T22:40:23.983Z,8.67
2022-11-25T22:42:53.327Z,7.97
2022-11-25T22:45:27.439Z,8.53
2022-11-25T22:47:55.219Z,13.43
2022-11-25T22:50:26.079Z,9.97
2022-11-25T22:52:55.128Z,13.23
2022-11-25T22:55:25.011Z,16.83
2022-11-25T22:57:54.509Z,11.10
2022-11-25T23:00:24.552Z,16.83
2022-11-25T23:02:56.493Z,12.70
2022-11-25T23:05:32.165Z,10.63
2022-11-25T23:08:00.781Z,13.13
2022-11-25T23:10:30.414Z,12.47
2022-11-25T23:12:58.166Z,15.40
2022-11-25T23:15:26.101Z,7.00
2022-11-25T23:17:56.235Z,9.43
2022-11-25T23:20:29.658Z,14.53
2022-11-25T23:22:57.904Z,16.13
2022-11-25T23:25:25.738Z,12.30
2022-11-25T23:27:53.399Z,12.27
2022-11-25T23:30:23.231Z,12.93
2022-11-25T23:32:52.742Z,10.13
2022-11-25T23:35:24.210Z,13.07
2022-11-25T23:37:55.435Z,15.90
2022-11-25T23:40:25.366Z,14.43
2022-11-25T23:42:55.365Z,12.20
2022-11-25T23:45:25.247Z,11.63
2022-11-25T23:47:54.072Z,11.03
2022-11-25T23:50:26.752Z,10.47
2022-11-25T23:52:57.721Z,11.13
2022-11-25T23:55:28.542Z,10.20
2022-11-25T23:57:56.478Z,13.33
